sensor_id;sensor_type;location;lat;lon;timestamp;pressure;altitude;pressure_sealevel;temperature;humidity
10988;BME280;5547;42.672;23.230;2022-10-31T00:00:25;93895.03;;;9.95;67.51
10988;BME280;5547;42.672;23.230;2022-10-31T00:02:50;93883.66;;;9.84;67.92
10988;BME280;5547;42.672;23.230;2022-10-31T00:05:15;93879.13;;;9.77;68.17
10988;BME280;5547;42.672;23.230;2022-10-31T00:07:41;93886.38;;;9.59;68.85
10988;BME280;5547;42.672;23.230;2022-10-31T00:10:06;93880.72;;;9.53;69.19
10988;BME280;5547;42.672;23.230;2022-10-31T00:12:31;93884.91;;;9.47;69.28
10988;BME280;5547;42.672;23.230;2022-10-31T00:14:57;93889.84;;;9.38;69.78
10988;BME280;5547;42.672;23.230;2022-10-31T00:17:22;93889.84;;;9.38;70.03
10988;BME280;5547;42.672;23.230;2022-10-31T00:19:47;93880.00;;;9.28;71.00
10988;BME280;5547;42.672;23.230;2022-10-31T00:22:13;93886.09;;;9.17;71.70
10988;BME280;5547;42.672;23.230;2022-10-31T00:24:38;93886.09;;;9.17;71.19
10988;BME280;5547;42.672;23.230;2022-10-31T00:27:03;93893.66;;;9.33;70.50
10988;BME280;5547;42.672;23.230;2022-10-31T00:29:29;93881.91;;;9.16;71.99
10988;BME280;5547;42.672;23.230;2022-10-31T00:31:54;93877.78;;;9.08;72.42
10988;BME280;5547;42.672;23.230;2022-10-31T00:34:19;93884.56;;;9.16;72.44
10988;BME280;5547;42.672;23.230;2022-10-31T00:36:44;93877.72;;;9.26;71.22
10988;BME280;5547;42.672;23.230;2022-10-31T00:39:10;93873.94;;;9.34;72.06
10988;BME280;5547;42.672;23.230;2022-10-31T00:41:35;93878.09;;;9.39;70.92
10988;BME280;5547;42.672;23.230;2022-10-31T00:44:00;93875.00;;;9.65;69.75
10988;BME280;5547;42.672;23.230;2022-10-31T00:46:25;93874.50;;;9.99;68.60
10988;BME280;5547;42.672;23.230;2022-10-31T00:48:51;93880.56;;;10.00;68.59
10988;BME280;5547;42.672;23.230;2022-10-31T00:51:16;93867.31;;;9.96;68.94
10988;BME280;5547;42.672;23.230;2022-10-31T00:53:41;93868.81;;;9.97;68.69
10988;BME280;5547;42.672;23.230;2022-10-31T00:56:07;93871.47;;;9.97;69.08
10988;BME280;5547;42.672;23.230;2022-10-31T00:58:32;93867.66;;;10.05;68.34
10988;BME280;5547;42.672;23.230;2022-10-31T01:00:57;93872.22;;;10.01;69.00
10988;BME280;5547;42.672;23.230;2022-10-31T01:03:27;93880.56;;;10.00;69.50
10988;BME280;5547;42.672;23.230;2022-10-31T01:05:57;93882.78;;;10.16;68.31
10988;BME280;5547;42.672;23.230;2022-10-31T01:08:22;93879.41;;;10.08;68.53
10988;BME280;5547;42.672;23.230;2022-10-31T01:10:57;93879.72;;;10.21;68.17
10988;BME280;5547;42.672;23.230;2022-10-31T01:13:22;93880.69;;;10.59;66.52
10988;BME280;5547;42.672;23.230;2022-10-31T01:15:53;93886.59;;;10.85;65.40
10988;BME280;5547;42.672;23.230;2022-10-31T01:18:18;93882.22;;;11.12;64.28
10988;BME280;5547;42.672;23.230;2022-10-31T01:20:43;93891.84;;;10.96;64.82
10988;BME280;5547;42.672;23.230;2022-10-31T01:23:09;93894.56;;;10.88;65.30
10988;BME280;5547;42.672;23.230;2022-10-31T01:25:34;93884.88;;;11.12;64.17
10988;BME280;5547;42.672;23.230;2022-10-31T01:27:59;93885.34;;;11.00;65.11
10988;BME280;5547;42.672;23.230;2022-10-31T01:30:24;93889.56;;;10.94;65.17
10988;BME280;5547;42.672;23.230;2022-10-31T01:32:50;93889.97;;;10.92;65.78
10988;BME280;5547;42.672;23.230;2022-10-31T01:35:15;93876.19;;;11.05;64.99
10988;BME280;5547;42.672;23.230;2022-10-31T01:37:40;93872.47;;;11.36;64.67
10988;BME280;5547;42.672;23.230;2022-10-31T01:40:05;93876.00;;;11.64;63.26
10988;BME280;5547;42.672;23.230;2022-10-31T01:42:31;93882.94;;;11.58;63.67
10988;BME280;5547;42.672;23.230;2022-10-31T01:44:58;93882.66;;;11.49;63.88
10988;BME280;5547;42.672;23.230;2022-10-31T01:47:30;93879.69;;;11.40;64.49
10988;BME280;5547;42.672;23.230;2022-10-31T01:49:57;93887.38;;;11.30;64.55
10988;BME280;5547;42.672;23.230;2022-10-31T01:52:36;93887.09;;;11.21;65.47
10988;BME280;5547;42.672;23.230;2022-10-31T01:57:29;93893.97;;;11.15;66.60
10988;BME280;5547;42.672;23.230;2022-10-31T01:59:58;93889.88;;;11.03;67.75
10988;BME280;5547;42.672;23.230;2022-10-31T02:02:25;93890.69;;;10.97;69.47
10988;BME280;5547;42.672;23.230;2022-10-31T02:04:50;93885.78;;;10.91;70.71
10988;BME280;5547;42.672;23.230;2022-10-31T02:07:18;93891.13;;;10.91;68.07
10988;BME280;5547;42.672;23.230;2022-10-31T02:09:46;93888.47;;;10.88;69.96
10988;BME280;5547;42.672;23.230;2022-10-31T02:12:12;93890.81;;;10.82;70.15
10988;BME280;5547;42.672;23.230;2022-10-31T02:14:38;93887.06;;;10.72;71.57
10988;BME280;5547;42.672;23.230;2022-10-31T02:17:04;93887.03;;;10.76;70.55
10988;BME280;5547;42.672;23.230;2022-10-31T02:27:26;93884.78;;;10.71;70.81
10988;BME280;5547;42.672;23.230;2022-10-31T02:30:02;93895.47;;;10.64;70.89
10988;BME280;5547;42.672;23.230;2022-10-31T02:35:07;93904.59;;;10.63;70.51
10988;BME280;5547;42.672;23.230;2022-10-31T02:37:49;93902.28;;;10.68;70.14
10988;BME280;5547;42.672;23.230;2022-10-31T02:45:32;93909.06;;;10.80;68.31
10988;BME280;5547;42.672;23.230;2022-10-31T02:48:02;93908.69;;;10.82;68.35
10988;BME280;5547;42.672;23.230;2022-10-31T02:50:29;93912.88;;;10.79;68.12
10988;BME280;5547;42.672;23.230;2022-10-31T02:52:56;93911.38;;;10.75;68.57
10988;BME280;5547;42.672;23.230;2022-10-31T02:57:50;93908.38;;;10.69;69.03
10988;BME280;5547;42.672;23.230;2022-10-31T03:00:18;93888.69;;;10.56;68.64
10988;BME280;5547;42.672;23.230;2022-10-31T03:10:30;93921.34;;;10.60;69.98
10988;BME280;5547;42.672;23.230;2022-10-31T03:13:06;93921.72;;;10.58;69.99
10988;BME280;5547;42.672;23.230;2022-10-31T03:15:37;93928.22;;;10.54;70.29
10988;BME280;5547;42.672;23.230;2022-10-31T03:18:07;93922.09;;;10.64;69.57
10988;BME280;5547;42.672;23.230;2022-10-31T03:20:35;93919.13;;;10.44;71.09
10988;BME280;5547;42.672;23.230;2022-10-31T03:23:02;93917.69;;;10.25;73.39
10988;BME280;5547;42.672;23.230;2022-10-31T03:25:28;93920.41;;;10.10;73.46
10988;BME280;5547;42.672;23.230;2022-10-31T03:27:54;93917.41;;;10.01;73.63
10988;BME280;5547;42.672;23.230;2022-10-31T03:30:20;93924.28;;;9.88;73.61
10988;BME280;5547;42.672;23.230;2022-10-31T03:32:50;93925.81;;;9.75;74.01
10988;BME280;5547;42.672;23.230;2022-10-31T03:35:17;93927.75;;;9.60;75.18
10988;BME280;5547;42.672;23.230;2022-10-31T03:37:44;93930.06;;;9.43;76.09
10988;BME280;5547;42.672;23.230;2022-10-31T03:40:10;93940.28;;;9.31;77.58
10988;BME280;5547;42.672;23.230;2022-10-31T03:42:38;93934.25;;;9.27;77.18
10988;BME280;5547;42.672;23.230;2022-10-31T03:47:30;93941.06;;;9.17;78.04
10988;BME280;5547;42.672;23.230;2022-10-31T03:49:56;93937.66;;;9.13;77.89
10988;BME280;5547;42.672;23.230;2022-10-31T03:52:24;93942.97;;;9.16;77.88
10988;BME280;5547;42.672;23.230;2022-10-31T03:54:53;93943.72;;;9.28;77.23
10988;BME280;5547;42.672;23.230;2022-10-31T04:00:07;93942.94;;;9.23;77.54
10988;BME280;5547;42.672;23.230;2022-10-31T04:02:33;93945.25;;;9.18;76.99
10988;BME280;5547;42.672;23.230;2022-10-31T04:04:59;93947.13;;;9.10;77.56
10988;BME280;5547;42.672;23.230;2022-10-31T04:07:27;93947.13;;;9.07;77.83
10988;BME280;5547;42.672;23.230;2022-10-31T04:09:53;93920.19;;;8.79;78.77
10988;BME280;5547;42.672;23.230;2022-10-31T04:12:19;93950.91;;;8.98;79.42
10988;BME280;5547;42.672;23.230;2022-10-31T04:14:47;93950.91;;;8.98;79.73
10988;BME280;5547;42.672;23.230;2022-10-31T04:17:13;93953.56;;;9.05;80.33
10988;BME280;5547;42.672;23.230;2022-10-31T04:19:40;93955.09;;;9.21;79.74
10988;BME280;5547;42.672;23.230;2022-10-31T04:22:05;93950.16;;;9.34;78.33
10988;BME280;5547;42.672;23.230;2022-10-31T04:24:31;93954.31;;;9.42;78.45
10988;BME280;5547;42.672;23.230;2022-10-31T04:26:56;93956.59;;;9.47;78.69
10988;BME280;5547;42.672;23.230;2022-10-31T04:29:21;93954.31;;;9.56;77.62
10988;BME280;5547;42.672;23.230;2022-10-31T04:31:47;93959.63;;;9.53;78.33
10988;BME280;5547;42.672;23.230;2022-10-31T04:34:12;93951.66;;;9.60;78.57
10988;BME280;5547;42.672;23.230;2022-10-31T04:36:37;93955.81;;;9.61;79.37
10988;BME280;5547;42.672;23.230;2022-10-31T04:39:02;93948.97;;;9.63;79.03
10988;BME280;5547;42.672;23.230;2022-10-31T04:41:28;93949.75;;;9.67;78.85
10988;BME280;5547;42.672;23.230;2022-10-31T04:43:53;93960.38;;;9.67;79.35
10988;BME280;5547;42.672;23.230;2022-10-31T04:46:19;93956.97;;;9.71;78.71
10988;BME280;5547;42.672;23.230;2022-10-31T04:48:44;93958.47;;;9.72;78.62
10988;BME280;5547;42.672;23.230;2022-10-31T04:51:09;93957.31;;;9.80;77.89
10988;BME280;5547;42.672;23.230;2022-10-31T04:53:34;93960.72;;;9.77;78.68
10988;BME280;5547;42.672;23.230;2022-10-31T04:55:59;93962.25;;;9.81;78.31
10988;BME280;5547;42.672;23.230;2022-10-31T04:58:26;93969.81;;;9.79;78.18
10988;BME280;5547;42.672;23.230;2022-10-31T05:00:52;93966.44;;;9.82;77.67
10988;BME280;5547;42.672;23.230;2022-10-31T05:03:17;93967.19;;;9.83;77.85
10988;BME280;5547;42.672;23.230;2022-10-31T05:05:43;93975.53;;;9.81;77.84
10988;BME280;5547;42.672;23.230;2022-10-31T05:08:08;93979.34;;;9.73;78.14
10988;BME280;5547;42.672;23.230;2022-10-31T05:10:33;93986.19;;;9.71;78.66
10988;BME280;5547;42.672;23.230;2022-10-31T05:12:59;93979.72;;;9.68;79.73
10988;BME280;5547;42.672;23.230;2022-10-31T05:15:25;93990.34;;;9.61;80.51
10988;BME280;5547;42.672;23.230;2022-10-31T05:17:52;93985.78;;;9.54;81.53
10988;BME280;5547;42.672;23.230;2022-10-31T05:20:18;93989.59;;;9.57;80.25
10988;BME280;5547;42.672;23.230;2022-10-31T05:22:44;93988.84;;;9.56;80.54
10988;BME280;5547;42.672;23.230;2022-10-31T05:25:10;93992.25;;;9.50;81.24
10988;BME280;5547;42.672;23.230;2022-10-31T05:27:38;93996.06;;;9.41;81.14
10988;BME280;5547;42.672;23.230;2022-10-31T05:30:03;93989.22;;;9.33;81.89
10988;BME280;5547;42.672;23.230;2022-10-31T05:32:29;93993.78;;;9.33;81.79
10988;BME280;5547;42.672;23.230;2022-10-31T05:34:54;93990.00;;;9.34;82.22
10988;BME280;5547;42.672;23.230;2022-10-31T05:37:20;93989.22;;;9.44;81.66
10988;BME280;5547;42.672;23.230;2022-10-31T05:39:45;93997.19;;;9.37;81.65
10988;BME280;5547;42.672;23.230;2022-10-31T05:42:10;93998.34;;;9.36;81.88
10988;BME280;5547;42.672;23.230;2022-10-31T05:44:35;94003.66;;;9.50;81.55
10988;BME280;5547;42.672;23.230;2022-10-31T05:47:01;94005.91;;;9.44;81.93
10988;BME280;5547;42.672;23.230;2022-10-31T05:49:26;94011.22;;;9.41;82.08
10988;BME280;5547;42.672;23.230;2022-10-31T05:51:51;94009.31;;;9.45;82.21
10988;BME280;5547;42.672;23.230;2022-10-31T05:54:16;94004.78;;;9.49;82.67
10988;BME280;5547;42.672;23.230;2022-10-31T05:56:42;94007.81;;;9.58;82.07
10988;BME280;5547;42.672;23.230;2022-10-31T05:59:07;94005.13;;;9.87;80.13
10988;BME280;5547;42.672;23.230;2022-10-31T06:01:32;94005.88;;;9.98;79.64
10988;BME280;5547;42.672;23.230;2022-10-31T06:03:57;94016.47;;;10.13;79.30
10988;BME280;5547;42.672;23.230;2022-10-31T06:06:23;94017.97;;;10.24;79.18
10988;BME280;5547;42.672;23.230;2022-10-31T06:08:48;94020.59;;;10.39;79.00
10988;BME280;5547;42.672;23.230;2022-10-31T06:11:13;94021.28;;;10.57;78.23
10988;BME280;5547;42.672;23.230;2022-10-31T06:13:39;94017.78;;;10.78;76.54
10988;BME280;5547;42.672;23.230;2022-10-31T06:16:04;94028.31;;;11.03;75.17
10988;BME280;5547;42.672;23.230;2022-10-31T06:18:29;94026.19;;;11.36;74.21
10988;BME280;5547;42.672;23.230;2022-10-31T06:20:54;94031.88;;;11.42;74.21
10988;BME280;5547;42.672;23.230;2022-10-31T06:23:20;94034.81;;;11.58;72.82
10988;BME280;5547;42.672;23.230;2022-10-31T06:25:49;94039.09;;;11.97;70.82
10988;BME280;5547;42.672;23.230;2022-10-31T06:28:14;94036.28;;;12.11;69.92
10988;BME280;5547;42.672;23.230;2022-10-31T06:30:39;94045.34;;;12.17;69.19
10988;BME280;5547;42.672;23.230;2022-10-31T06:33:04;94042.59;;;12.28;68.70
10988;BME280;5547;42.672;23.230;2022-10-31T06:35:30;94043.25;;;12.36;67.63
10988;BME280;5547;42.672;23.230;2022-10-31T06:37:56;94044.50;;;12.62;67.13
10988;BME280;5547;42.672;23.230;2022-10-31T06:40:21;94045.25;;;12.63;67.50
10988;BME280;5547;42.672;23.230;2022-10-31T06:42:47;94040.94;;;12.76;67.54
10988;BME280;5547;42.672;23.230;2022-10-31T06:45:12;94048.53;;;13.08;66.19
10988;BME280;5547;42.672;23.230;2022-10-31T06:47:38;94054.91;;;13.14;66.71
10988;BME280;5547;42.672;23.230;2022-10-31T06:50:03;94054.53;;;13.16;66.21
10988;BME280;5547;42.672;23.230;2022-10-31T06:52:29;94047.94;;;13.24;67.72
10988;BME280;5547;42.672;23.230;2022-10-31T06:54:54;94047.13;;;13.27;67.23
10988;BME280;5547;42.672;23.230;2022-10-31T06:57:19;94055.25;;;13.20;67.38
10988;BME280;5547;42.672;23.230;2022-10-31T06:59:44;94049.53;;;13.18;68.22
10988;BME280;5547;42.672;23.230;2022-10-31T07:02:10;94053.69;;;13.22;66.60
10988;BME280;5547;42.672;23.230;2022-10-31T07:04:35;94056.03;;;13.17;66.87
10988;BME280;5547;42.672;23.230;2022-10-31T07:07:01;94055.34;;;13.13;66.86
10988;BME280;5547;42.672;23.230;2022-10-31T07:09:26;94063.25;;;13.20;67.19
10988;BME280;5547;42.672;23.230;2022-10-31T07:11:52;94067.78;;;13.23;66.37
10988;BME280;5547;42.672;23.230;2022-10-31T07:14:17;94062.44;;;13.23;66.34
10988;BME280;5547;42.672;23.230;2022-10-31T07:16:43;94058.13;;;13.33;66.46
10988;BME280;5547;42.672;23.230;2022-10-31T07:19:08;94063.59;;;13.53;64.99
10988;BME280;5547;42.672;23.230;2022-10-31T07:21:33;94060.16;;;13.52;64.80
10988;BME280;5547;42.672;23.230;2022-10-31T07:23:59;94057.72;;;13.38;65.16
10988;BME280;5547;42.672;23.230;2022-10-31T07:26:24;94049.81;;;13.27;65.67
10988;BME280;5547;42.672;23.230;2022-10-31T07:28:49;94051.03;;;13.50;65.55
10988;BME280;5547;42.672;23.230;2022-10-31T07:31:14;94049.53;;;13.49;65.51
10988;BME280;5547;42.672;23.230;2022-10-31T07:33:40;94042.22;;;13.76;64.68
10988;BME280;5547;42.672;23.230;2022-10-31T07:36:05;94038.41;;;13.77;64.78
10988;BME280;5547;42.672;23.230;2022-10-31T07:38:31;94040.03;;;13.95;64.06
10988;BME280;5547;42.672;23.230;2022-10-31T07:40:56;94039.56;;;14.00;63.32
10988;BME280;5547;42.672;23.230;2022-10-31T07:43:21;94047.94;;;14.02;62.97
10988;BME280;5547;42.672;23.230;2022-10-31T07:45:51;94037.09;;;14.09;63.06
10988;BME280;5547;42.672;23.230;2022-10-31T07:48:17;94038.72;;;14.26;62.55
10988;BME280;5547;42.672;23.230;2022-10-31T07:50:42;94039.88;;;14.25;62.48
10988;BME280;5547;42.672;23.230;2022-10-31T07:53:08;94040.44;;;14.37;61.85
10988;BME280;5547;42.672;23.230;2022-10-31T07:55:34;94046.13;;;14.62;61.00
10988;BME280;5547;42.672;23.230;2022-10-31T07:58:00;94039.31;;;14.58;61.53
10988;BME280;5547;42.672;23.230;2022-10-31T08:00:26;94041.78;;;14.68;60.88
10988;BME280;5547;42.672;23.230;2022-10-31T08:05:23;94049.13;;;14.84;60.87
10988;BME280;5547;42.672;23.230;2022-10-31T08:07:48;94041.84;;;14.85;60.81
10988;BME280;5547;42.672;23.230;2022-10-31T08:10:13;94045.47;;;14.95;60.11
10988;BME280;5547;42.672;23.230;2022-10-31T08:12:39;94047.47;;;15.10;59.83
10988;BME280;5547;42.672;23.230;2022-10-31T08:15:04;94046.97;;;15.16;59.79
10988;BME280;5547;42.672;23.230;2022-10-31T08:17:29;94048.88;;;15.15;59.93
10988;BME280;5547;42.672;23.230;2022-10-31T08:19:55;94048.34;;;15.24;60.11
10988;BME280;5547;42.672;23.230;2022-10-31T08:22:20;94043.09;;;15.37;58.72
10988;BME280;5547;42.672;23.230;2022-10-31T08:24:45;94054.22;;;15.35;59.27
10988;BME280;5547;42.672;23.230;2022-10-31T08:27:10;94042.03;;;15.50;58.55
10988;BME280;5547;42.672;23.230;2022-10-31T08:29:36;94053.47;;;15.34;58.99
10988;BME280;5547;42.672;23.230;2022-10-31T08:32:01;94052.56;;;15.41;59.59
10988;BME280;5547;42.672;23.230;2022-10-31T08:34:26;94052.75;;;15.67;58.85
10988;BME280;5547;42.672;23.230;2022-10-31T08:36:52;94050.84;;;15.84;58.44
10988;BME280;5547;42.672;23.230;2022-10-31T08:39:17;94052.28;;;15.88;58.00
10988;BME280;5547;42.672;23.230;2022-10-31T08:41:42;94052.84;;;15.96;58.13
10988;BME280;5547;42.672;23.230;2022-10-31T08:44:07;94048.50;;;16.02;57.76
10988;BME280;5547;42.672;23.230;2022-10-31T08:46:33;94058.59;;;15.62;58.32
10988;BME280;5547;42.672;23.230;2022-10-31T08:48:59;94054.22;;;15.88;57.93
10988;BME280;5547;42.672;23.230;2022-10-31T08:51:24;94059.22;;;16.02;58.24
10988;BME280;5547;42.672;23.230;2022-10-31T08:53:49;94051.19;;;15.86;58.16
10988;BME280;5547;42.672;23.230;2022-10-31T08:56:15;94054.03;;;15.79;60.50
10988;BME280;5547;42.672;23.230;2022-10-31T08:58:40;94055.88;;;15.98;57.98
10988;BME280;5547;42.672;23.230;2022-10-31T09:01:05;94049.38;;;16.28;57.96
10988;BME280;5547;42.672;23.230;2022-10-31T09:03:30;94051.47;;;16.37;57.26
10988;BME280;5547;42.672;23.230;2022-10-31T09:06:00;94050.06;;;16.62;56.20
10988;BME280;5547;42.672;23.230;2022-10-31T09:08:26;94051.88;;;16.65;55.83
10988;BME280;5547;42.672;23.230;2022-10-31T09:10:51;94053.09;;;16.76;55.62
10988;BME280;5547;42.672;23.230;2022-10-31T09:13:20;94051.97;;;16.61;56.09
10988;BME280;5547;42.672;23.230;2022-10-31T09:15:46;94047.94;;;16.69;56.52
10988;BME280;5547;42.672;23.230;2022-10-31T09:18:12;94052.88;;;17.00;54.81
10988;BME280;5547;42.672;23.230;2022-10-31T09:20:38;94051.78;;;16.97;55.23
10988;BME280;5547;42.672;23.230;2022-10-31T09:23:05;94045.88;;;17.02;54.52
10988;BME280;5547;42.672;23.230;2022-10-31T09:25:32;94040.22;;;17.13;54.17
10988;BME280;5547;42.672;23.230;2022-10-31T09:27:58;94038.69;;;16.99;53.91
10988;BME280;5547;42.672;23.230;2022-10-31T09:30:24;94039.56;;;17.09;55.20
10988;BME280;5547;42.672;23.230;2022-10-31T09:32:54;94038.72;;;17.25;54.49
10988;BME280;5547;42.672;23.230;2022-10-31T09:35:19;94034.94;;;17.22;54.37
10988;BME280;5547;42.672;23.230;2022-10-31T09:37:45;94038.28;;;17.27;53.47
10988;BME280;5547;42.672;23.230;2022-10-31T09:40:10;94040.75;;;17.34;53.14
10988;BME280;5547;42.672;23.230;2022-10-31T09:42:51;94036.44;;;17.23;53.74
10988;BME280;5547;42.672;23.230;2022-10-31T09:47:57;94038.94;;;17.43;52.64
10988;BME280;5547;42.672;23.230;2022-10-31T09:50:44;94039.59;;;17.48;52.31
10988;BME280;5547;42.672;23.230;2022-10-31T09:56:01;94035.50;;;17.43;51.62
10988;BME280;5547;42.672;23.230;2022-10-31T09:58:30;94034.09;;;17.64;51.40
10988;BME280;5547;42.672;23.230;2022-10-31T10:00:58;94034.38;;;17.79;51.07
10988;BME280;5547;42.672;23.230;2022-10-31T10:06:12;94028.19;;;17.82;51.85
10988;BME280;5547;42.672;23.230;2022-10-31T10:08:39;94032.38;;;17.70;51.29
10988;BME280;5547;42.672;23.230;2022-10-31T10:11:08;94024.63;;;17.72;50.87
10988;BME280;5547;42.672;23.230;2022-10-31T10:26:20;94013.59;;;18.40;47.27
10988;BME280;5547;42.672;23.230;2022-10-31T10:28:56;94008.16;;;18.18;48.29
10988;BME280;5547;42.672;23.230;2022-10-31T10:31:30;94004.88;;;18.36;47.65
10988;BME280;5547;42.672;23.230;2022-10-31T10:34:08;94003.56;;;18.40;47.85
10988;BME280;5547;42.672;23.230;2022-10-31T10:36:37;94000.63;;;18.47;48.30
10988;BME280;5547;42.672;23.230;2022-10-31T10:39:08;94005.19;;;18.60;47.14
10988;BME280;5547;42.672;23.230;2022-10-31T10:41:37;93993.72;;;18.81;45.88
10988;BME280;5547;42.672;23.230;2022-10-31T10:44:05;93997.50;;;18.93;44.93
10988;BME280;5547;42.672;23.230;2022-10-31T10:46:43;93986.25;;;18.85;44.78
10988;BME280;5547;42.672;23.230;2022-10-31T10:59:38;93984.09;;;19.02;44.54
10988;BME280;5547;42.672;23.230;2022-10-31T11:02:08;93984.56;;;19.10;44.27
10988;BME280;5547;42.672;23.230;2022-10-31T11:04:40;93980.59;;;18.93;45.56
10988;BME280;5547;42.672;23.230;2022-10-31T11:07:07;93982.16;;;19.12;44.14
10988;BME280;5547;42.672;23.230;2022-10-31T11:09:33;93972.91;;;19.22;44.52
10988;BME280;5547;42.672;23.230;2022-10-31T11:11:59;93978.16;;;19.17;45.08
10988;BME280;5547;42.672;23.230;2022-10-31T11:14:25;93973.78;;;19.10;44.71
10988;BME280;5547;42.672;23.230;2022-10-31T11:16:53;93971.97;;;19.07;44.56
10988;BME280;5547;42.672;23.230;2022-10-31T11:19:23;93973.50;;;19.17;44.63
10988;BME280;5547;42.672;23.230;2022-10-31T11:21:51;93968.66;;;19.03;44.37
10988;BME280;5547;42.672;23.230;2022-10-31T11:24:18;93966.13;;;19.49;43.59
10988;BME280;5547;42.672;23.230;2022-10-31T11:26:44;93965.53;;;19.54;43.24
10988;BME280;5547;42.672;23.230;2022-10-31T11:29:14;93966.41;;;19.42;44.07
10988;BME280;5547;42.672;23.230;2022-10-31T11:31:40;93968.19;;;19.36;43.78
10988;BME280;5547;42.672;23.230;2022-10-31T11:34:11;93956.50;;;19.39;43.99
10988;BME280;5547;42.672;23.230;2022-10-31T11:36:37;93958.28;;;19.33;44.79
10988;BME280;5547;42.672;23.230;2022-10-31T11:39:04;93956.28;;;19.64;43.66
10988;BME280;5547;42.672;23.230;2022-10-31T11:41:36;93954.47;;;19.61;43.62
10988;BME280;5547;42.672;23.230;2022-10-31T11:46:36;93955.47;;;19.55;44.44
10988;BME280;5547;42.672;23.230;2022-10-31T11:49:03;93952.47;;;19.43;43.94
10988;BME280;5547;42.672;23.230;2022-10-31T11:51:30;93946.94;;;19.47;44.15
10988;BME280;5547;42.672;23.230;2022-10-31T11:53:59;93946.19;;;19.46;44.18
10988;BME280;5547;42.672;23.230;2022-10-31T11:56:27;93942.09;;;19.33;44.53
10988;BME280;5547;42.672;23.230;2022-10-31T11:58:56;93943.06;;;19.48;43.90
10988;BME280;5547;42.672;23.230;2022-10-31T12:01:26;93935.31;;;19.68;43.42
10988;BME280;5547;42.672;23.230;2022-10-31T12:04:08;93941.53;;;19.47;44.03
10988;BME280;5547;42.672;23.230;2022-10-31T12:06:37;93767.81;;;18.17;45.66
10988;BME280;5547;42.672;23.230;2022-10-31T12:09:25;93936.25;;;19.25;45.11
10988;BME280;5547;42.672;23.230;2022-10-31T12:14:38;93933.47;;;19.56;43.92
10988;BME280;5547;42.672;23.230;2022-10-31T12:17:13;93941.78;;;19.30;44.85
10988;BME280;5547;42.672;23.230;2022-10-31T12:35:23;93929.19;;;19.77;43.54
10988;BME280;5547;42.672;23.230;2022-10-31T12:49:58;93920.00;;;19.65;43.74
10988;BME280;5547;42.672;23.230;2022-10-31T12:58:04;93924.00;;;18.93;45.70
10988;BME280;5547;42.672;23.230;2022-10-31T13:00:35;93923.94;;;18.83;46.91
10988;BME280;5547;42.672;23.230;2022-10-31T13:03:17;93920.50;;;18.61;47.66
10988;BME280;5547;42.672;23.230;2022-10-31T13:05:45;93926.34;;;18.37;48.82
10988;BME280;5547;42.672;23.230;2022-10-31T13:08:22;93927.47;;;18.27;49.25
10988;BME280;5547;42.672;23.230;2022-10-31T13:10:54;93925.09;;;18.29;48.91
10988;BME280;5547;42.672;23.230;2022-10-31T13:15:58;93925.72;;;18.33;48.53
10988;BME280;5547;42.672;23.230;2022-10-31T13:21:21;93921.19;;;18.52;48.20
10988;BME280;5547;42.672;23.230;2022-10-31T13:23:48;93917.38;;;18.40;48.42
10988;BME280;5547;42.672;23.230;2022-10-31T13:26:23;93919.59;;;18.33;48.47
10988;BME280;5547;42.672;23.230;2022-10-31T13:29:00;93918.19;;;18.50;48.23
10988;BME280;5547;42.672;23.230;2022-10-31T13:31:27;93918.75;;;18.45;48.08
10988;BME280;5547;42.672;23.230;2022-10-31T13:33:55;93915.06;;;18.52;47.65
10988;BME280;5547;42.672;23.230;2022-10-31T13:48:53;93916.84;;;18.23;48.23
10988;BME280;5547;42.672;23.230;2022-10-31T13:51:31;93913.88;;;18.09;48.22
10988;BME280;5547;42.672;23.230;2022-10-31T13:59:00;93916.19;;;17.97;48.34
10988;BME280;5547;42.672;23.230;2022-10-31T14:01:26;93917.06;;;17.94;49.22
10988;BME280;5547;42.672;23.230;2022-10-31T14:06:42;93918.41;;;17.77;49.66
10988;BME280;5547;42.672;23.230;2022-10-31T14:09:25;93921.00;;;17.68;49.90
10988;BME280;5547;42.672;23.230;2022-10-31T14:11:51;93924.69;;;17.61;50.84
10988;BME280;5547;42.672;23.230;2022-10-31T14:14:18;93924.47;;;17.55;50.34
10988;BME280;5547;42.672;23.230;2022-10-31T14:16:44;93925.56;;;17.45;50.71
10988;BME280;5547;42.672;23.230;2022-10-31T14:19:17;93926.13;;;17.40;50.82
10988;BME280;5547;42.672;23.230;2022-10-31T14:21:44;93927.75;;;17.25;51.57
10988;BME280;5547;42.672;23.230;2022-10-31T14:24:52;93927.66;;;17.15;51.26
10988;BME280;5547;42.672;23.230;2022-10-31T14:27:00;93931.09;;;17.03;54.26
10988;BME280;5547;42.672;23.230;2022-10-31T14:29:27;93930.22;;;16.93;54.13
10988;BME280;5547;42.672;23.230;2022-10-31T14:31:54;93930.66;;;16.92;54.63
10988;BME280;5547;42.672;23.230;2022-10-31T14:34:29;93928.41;;;16.90;55.19
10988;BME280;5547;42.672;23.230;2022-10-31T14:42:23;93928.50;;;16.32;57.22
10988;BME280;5547;42.672;23.230;2022-10-31T14:45:13;93926.97;;;16.18;58.83
10988;BME280;5547;42.672;23.230;2022-10-31T14:48:03;93927.91;;;16.11;56.83
10988;BME280;5547;42.672;23.230;2022-10-31T14:50:37;93920.94;;;16.14;54.97
10988;BME280;5547;42.672;23.230;2022-10-31T14:53:06;93931.47;;;16.21;54.67
10988;BME280;5547;42.672;23.230;2022-10-31T14:55:39;93925.91;;;16.28;51.92
10988;BME280;5547;42.672;23.230;2022-10-31T14:58:06;93926.78;;;16.38;52.42
10988;BME280;5547;42.672;23.230;2022-10-31T15:00:32;93928.44;;;16.19;53.00
10988;BME280;5547;42.672;23.230;2022-10-31T15:03:04;93925.97;;;16.12;52.97
10988;BME280;5547;42.672;23.230;2022-10-31T15:05:31;93924.13;;;16.09;52.37
10988;BME280;5547;42.672;23.230;2022-10-31T15:07:58;93925.63;;;16.39;51.14
10988;BME280;5547;42.672;23.230;2022-10-31T15:10:33;93930.72;;;16.21;52.45
10988;BME280;5547;42.672;23.230;2022-10-31T15:13:20;93919.38;;;16.29;50.95
10988;BME280;5547;42.672;23.230;2022-10-31T15:15:47;93923.19;;;16.57;50.08
10988;BME280;5547;42.672;23.230;2022-10-31T15:18:13;93935.53;;;16.55;49.53
10988;BME280;5547;42.672;23.230;2022-10-31T15:20:42;93932.09;;;16.54;49.36